createdAt,value
2022-12-28T00:00:24.117Z,14.90
2022-12-28T00:03:27.798Z,11.47
2022-12-28T00:06:29.511Z,14.73
2022-12-28T00:09:30.916Z,13.30
2022-12-28T00:12:32.820Z,11.60
2022-12-28T00:15:37.182Z,11.73
2022-12-28T00:18:38.620Z,10.87
2022-12-28T00:21:41.070Z,11.50
2022-12-28T00:24:42.539Z,12.03
2022-12-28T00:27:43.931Z,12.07
2022-12-28T00:30:45.906Z,10.70
2022-12-28T00:33:47.326Z,12.23
2022-12-28T00:37:09.696Z,12.10
2022-12-28T00:40:16.458Z,10.93
2022-12-28T00:43:22.856Z,11.97
2022-12-28T00:46:24.252Z,10.70
2022-12-28T00:49:25.665Z,9.87
2022-12-28T00:52:27.735Z,10.60
2022-12-28T00:55:29.141Z,9.97
2022-12-28T00:58:30.536Z,12.20
2022-12-28T01:01:32.065Z,10.80
2022-12-28T01:04:33.561Z,11.53
2022-12-28T01:07:35.011Z,11.77
2022-12-28T01:10:38.865Z,10.23
2022-12-28T01:13:40.255Z,9.80
2022-12-28T01:16:41.725Z,9.33
2022-12-28T01:19:47.295Z,8.37
2022-12-28T01:22:51.687Z,10.10
2022-12-28T01:25:53.081Z,10.73
2022-12-28T01:28:54.767Z,9.23
2022-12-28T01:31:56.205Z,9.33
2022-12-28T01:34:57.628Z,7.73
2022-12-28T01:37:59.169Z,10.83
2022-12-28T01:41:00.664Z,8.07
2022-12-28T01:44:03.243Z,5.87
2022-12-28T01:47:09.401Z,9.70
2022-12-28T01:50:16.962Z,9.10
2022-12-28T01:53:19.695Z,10.33
2022-12-28T01:56:23.005Z,11.53
2022-12-28T01:59:31.654Z,8.90
2022-12-28T02:02:33.703Z,10.77
2022-12-28T02:05:39.812Z,10.33
2022-12-28T02:09:03.715Z,7.43
2022-12-28T02:12:08.147Z,9.07
2022-12-28T02:15:09.964Z,12.77
2022-12-28T02:18:13.162Z,9.60
2022-12-28T02:21:47.727Z,8.63
2022-12-28T02:25:26.967Z,7.17
2022-12-28T02:28:49.693Z,7.53
2022-12-28T02:32:02.963Z,7.20
2022-12-28T02:35:38.671Z,8.33
2022-12-28T02:38:53.941Z,7.27
2022-12-28T02:41:57.183Z,6.60
2022-12-28T02:45:17.298Z,5.80
2022-12-28T02:48:37.390Z,7.50
2022-12-28T02:51:57.457Z,7.83
2022-12-28T02:55:37.335Z,9.10
2022-12-28T02:59:12.242Z,6.00
2022-12-28T03:02:22.822Z,6.27
2022-12-28T03:05:50.401Z,9.73
2022-12-28T03:09:19.827Z,8.90
2022-12-28T03:12:37.674Z,6.77
2022-12-28T03:15:40.023Z,7.47
2022-12-28T03:19:04.604Z,9.70
2022-12-28T03:22:27.557Z,11.40
2022-12-28T03:25:53.136Z,10.53
2022-12-28T03:29:24.169Z,9.87
2022-12-28T03:32:26.742Z,9.20
2022-12-28T03:35:38.789Z,8.07
2022-12-28T03:38:56.948Z,7.63
2022-12-28T03:42:26.381Z,7.57
2022-12-28T03:45:56.375Z,9.97
2022-12-28T03:48:59.542Z,8.33
2022-12-28T03:52:01.900Z,6.97
2022-12-28T03:55:04.603Z,9.67
2022-12-28T03:58:06.403Z,5.43
2022-12-28T04:01:08.660Z,5.57
2022-12-28T04:04:12.313Z,8.30
2022-12-28T04:07:13.752Z,6.23
2022-12-28T04:10:15.238Z,7.73
2022-12-28T04:13:17.884Z,5.63
2022-12-28T04:16:28.494Z,7.20
2022-12-28T04:19:29.955Z,7.27
2022-12-28T04:22:31.358Z,7.13
2022-12-28T04:25:34.010Z,8.03
2022-12-28T04:28:36.256Z,9.07
2022-12-28T04:31:56.551Z,7.63
2022-12-28T04:34:58.394Z,6.20
2022-12-28T04:37:59.823Z,7.27
2022-12-28T04:41:02.315Z,9.00
2022-12-28T04:44:03.797Z,7.13
2022-12-28T04:47:05.187Z,7.60
2022-12-28T04:50:06.747Z,8.43
2022-12-28T04:53:08.116Z,6.50
2022-12-28T04:56:11.171Z,7.70
2022-12-28T04:59:12.579Z,6.53
2022-12-28T05:02:14.046Z,7.27
2022-12-28T05:05:15.726Z,6.80
2022-12-28T05:08:17.099Z,8.10
2022-12-28T05:11:23.968Z,7.43
2022-12-28T05:14:25.382Z,7.33
2022-12-28T05:17:26.764Z,8.60
2022-12-28T05:20:28.160Z,7.83
2022-12-28T05:23:30.945Z,7.40
2022-12-28T05:26:32.328Z,6.00
2022-12-28T05:29:33.707Z,8.77
2022-12-28T05:32:35.087Z,7.07
2022-12-28T05:35:36.458Z,9.60
2022-12-28T05:38:38.521Z,6.73
2022-12-28T05:41:40.074Z,7.43
2022-12-28T05:44:41.600Z,6.17
2022-12-28T05:47:43.054Z,8.00
2022-12-28T05:50:44.454Z,7.73
2022-12-28T05:53:46.732Z,6.00
2022-12-28T05:56:51.544Z,7.77
2022-12-28T05:59:52.942Z,5.80
2022-12-28T06:02:55.303Z,6.53
2022-12-28T06:05:56.735Z,6.53
2022-12-28T06:08:58.203Z,7.90
2022-12-28T06:11:59.599Z,7.00
2022-12-28T06:15:01.002Z,5.70
2022-12-28T06:18:02.397Z,7.57
2022-12-28T06:21:07.323Z,6.20
2022-12-28T06:24:09.314Z,6.07
2022-12-28T06:27:10.745Z,10.10
2022-12-28T06:30:12.930Z,6.53
2022-12-28T06:33:14.331Z,4.97
2022-12-28T06:36:20.255Z,5.40
2022-12-28T06:39:22.207Z,5.13
2022-12-28T06:42:23.667Z,5.50
2022-12-28T06:45:25.073Z,6.70
2022-12-28T06:48:26.919Z,5.87
2022-12-28T06:51:40.440Z,6.83
2022-12-28T06:54:42.023Z,5.30
2022-12-28T06:57:43.418Z,5.33
2022-12-28T07:00:44.784Z,7.67
2022-12-28T07:03:47.882Z,5.77
2022-12-28T07:06:49.267Z,7.67
2022-12-28T07:09:50.659Z,6.57
2022-12-28T07:12:52.051Z,8.83
2022-12-28T07:15:53.441Z,5.93
2022-12-28T07:18:55.498Z,6.67
2022-12-28T07:21:56.885Z,6.57
2022-12-28T07:24:58.278Z,6.20
2022-12-28T07:27:59.688Z,7.70
2022-12-28T07:31:05.987Z,9.47
2022-12-28T07:34:07.459Z,8.73
2022-12-28T07:37:08.870Z,6.40
2022-12-28T07:40:10.924Z,8.00
2022-12-28T07:43:12.331Z,9.30
2022-12-28T07:46:17.141Z,8.27
2022-12-28T07:49:18.594Z,9.03
2022-12-28T07:52:19.992Z,12.07
2022-12-28T07:55:21.393Z,9.97
2022-12-28T07:58:23.235Z,7.07
2022-12-28T08:01:27.401Z,6.33
2022-12-28T08:04:29.267Z,7.20
2022-12-28T08:07:35.350Z,8.87
2022-12-28T08:10:36.867Z,7.30
2022-12-28T08:13:41.504Z,8.27
2022-12-28T08:16:44.377Z,7.03
2022-12-28T08:19:45.789Z,6.57
2022-12-28T08:22:47.160Z,11.20
2022-12-28T08:25:48.727Z,15.27
2022-12-28T08:28:53.253Z,19.97
2022-12-28T08:31:54.687Z,18.13
2022-12-28T08:34:56.193Z,21.37
2022-12-28T08:37:57.723Z,24.63
2022-12-28T08:41:00.984Z,21.93
2022-12-28T08:44:02.868Z,23.07
2022-12-28T08:47:04.489Z,20.93
2022-12-28T08:50:06.601Z,18.10
2022-12-28T08:53:08.061Z,16.30
2022-12-28T08:56:15.432Z,13.10
2022-12-28T08:59:18.463Z,9.33
2022-12-28T09:02:20.412Z,11.03
2022-12-28T09:05:22.018Z,7.93
2022-12-28T09:08:23.491Z,8.23
2022-12-28T09:11:25.464Z,9.00
2022-12-28T09:14:26.911Z,11.03
2022-12-28T09:17:29.571Z,17.23
2022-12-28T09:20:30.990Z,13.70
2022-12-28T09:23:32.430Z,10.77
2022-12-28T09:26:38.396Z,8.03
2022-12-28T09:29:39.796Z,9.03
2022-12-28T09:32:41.211Z,9.33
2022-12-28T09:35:42.709Z,9.60
2022-12-28T09:38:44.193Z,13.63
2022-12-28T09:41:52.430Z,12.87
2022-12-28T09:45:01.410Z,14.20
2022-12-28T09:48:10.122Z,13.17
2022-12-28T09:51:11.763Z,13.40
2022-12-28T09:54:13.203Z,11.60
2022-12-28T09:57:18.093Z,9.30
2022-12-28T10:00:25.652Z,8.43
2022-12-28T10:03:40.703Z,10.40
2022-12-28T10:06:43.608Z,9.40
2022-12-28T10:09:47.501Z,6.23
2022-12-28T10:12:50.737Z,7.07
2022-12-28T10:15:52.853Z,8.97
2022-12-28T10:18:54.618Z,7.83
2022-12-28T10:22:02.081Z,6.13
2022-12-28T10:25:14.966Z,3.77
2022-12-28T10:28:21.142Z,3.97
2022-12-28T10:31:36.305Z,3.13
2022-12-28T10:34:52.839Z,2.83
2022-12-28T10:38:01.699Z,3.70
2022-12-28T10:41:10.781Z,4.37
2022-12-28T10:44:41.593Z,2.70
2022-12-28T10:47:46.577Z,3.13
2022-12-28T10:50:53.175Z,2.93
2022-12-28T10:53:56.457Z,2.20
2022-12-28T10:56:57.880Z,3.33
2022-12-28T11:00:20.600Z,4.73
2022-12-28T11:03:29.215Z,3.37
2022-12-28T11:06:35.414Z,2.33
2022-12-28T11:09:36.840Z,2.93
2022-12-28T11:12:43.516Z,5.70
2022-12-28T11:15:45.083Z,2.80
2022-12-28T11:18:46.907Z,2.93
2022-12-28T11:21:49.299Z,2.83
2022-12-28T11:24:51.104Z,2.33
2022-12-28T11:27:52.837Z,1.90
2022-12-28T11:30:54.357Z,3.33
2022-12-28T11:34:04.480Z,2.37
2022-12-28T11:37:13.423Z,1.90
2022-12-28T11:40:43.427Z,3.67
2022-12-28T11:43:50.394Z,2.40
2022-12-28T11:47:06.225Z,2.03
2022-12-28T11:50:36.667Z,2.30
2022-12-28T11:53:44.459Z,2.40
2022-12-28T11:56:45.852Z,3.43
2022-12-28T11:59:47.324Z,1.83
2022-12-28T12:02:57.288Z,2.80
2022-12-28T12:05:58.882Z,1.50
2022-12-28T12:09:00.303Z,2.67
2022-12-28T12:12:23.158Z,1.60
2022-12-28T12:15:32.595Z,3.20
2022-12-28T12:18:48.350Z,2.20
2022-12-28T12:22:02.015Z,2.67
2022-12-28T12:25:21.736Z,1.20
2022-12-28T12:28:37.810Z,3.23
2022-12-28T12:31:54.030Z,2.70
2022-12-28T12:35:03.564Z,3.07
2022-12-28T12:38:40.740Z,1.50
2022-12-28T12:42:00.352Z,1.60
2022-12-28T12:45:20.541Z,1.50
2022-12-28T12:48:52.157Z,1.70
2022-12-28T12:52:07.456Z,2.40
2022-12-28T12:55:22.372Z,1.40
2022-12-28T12:58:41.518Z,1.30
2022-12-28T13:01:54.732Z,1.67
2022-12-28T13:04:56.307Z,5.07
2022-12-28T13:08:00.246Z,2.20
2022-12-28T13:11:01.848Z,1.73
2022-12-28T13:14:03.938Z,1.97
2022-12-28T13:17:13.696Z,2.63
2022-12-28T13:20:21.223Z,2.53
2022-12-28T13:23:24.298Z,3.27
2022-12-28T13:26:28.787Z,2.67
2022-12-28T13:29:38.906Z,2.40
2022-12-28T13:32:50.906Z,2.23
2022-12-28T13:36:10.276Z,1.90
2022-12-28T13:39:14.282Z,1.77
2022-12-28T13:42:28.080Z,2.53
2022-12-28T13:45:29.898Z,2.63
2022-12-28T13:48:31.710Z,1.23
2022-12-28T13:51:37.874Z,1.83
2022-12-28T13:54:40.582Z,1.67
2022-12-28T13:57:48.300Z,2.33
2022-12-28T14:00:53.368Z,1.40
2022-12-28T14:04:33.736Z,1.33
2022-12-28T14:07:28.563Z,1.60
2022-12-28T14:10:30.240Z,2.87
2022-12-28T14:13:33.650Z,1.63
2022-12-28T14:16:35.965Z,1.60
2022-12-28T14:19:38.346Z,1.50
2022-12-28T14:22:40.741Z,1.70
2022-12-28T14:25:43.034Z,1.73
2022-12-28T14:28:51.062Z,1.50
2022-12-28T14:31:58.286Z,1.37
2022-12-28T14:35:00.506Z,2.97
2022-12-28T14:38:02.032Z,2.00
2022-12-28T14:41:04.800Z,1.77
2022-12-28T14:44:15.851Z,1.50
2022-12-28T14:47:46.798Z,2.33
2022-12-28T14:55:20.580Z,1.73
2022-12-28T14:58:26.063Z,1.80
2022-12-28T15:00:16.387Z,1.57
2022-12-28T15:01:46.517Z,1.43
2022-12-28T15:04:49.820Z,1.67
2022-12-28T15:07:51.208Z,3.10
2022-12-28T15:10:58.010Z,2.77
2022-12-28T15:13:59.430Z,1.90
2022-12-28T15:17:00.899Z,3.27
2022-12-28T15:20:02.364Z,3.13
2022-12-28T15:23:04.094Z,3.00
2022-12-28T15:26:10.125Z,2.60
2022-12-28T15:29:13.513Z,13.07
2022-12-28T15:32:20.310Z,15.13
2022-12-28T15:35:21.750Z,8.73
2022-12-28T15:38:23.159Z,6.63
2022-12-28T15:41:43.874Z,4.50
2022-12-28T15:44:48.342Z,2.80
2022-12-28T15:47:53.070Z,3.90
2022-12-28T15:50:54.447Z,2.47
2022-12-28T15:53:55.841Z,4.03
2022-12-28T15:56:58.030Z,2.70
2022-12-28T15:59:59.527Z,2.67
2022-12-28T16:03:01.573Z,2.33
2022-12-28T16:06:03.853Z,1.67
2022-12-28T16:09:06.241Z,4.70
2022-12-28T16:12:07.813Z,4.10
2022-12-28T16:15:09.630Z,3.73
2022-12-28T16:18:11.024Z,2.87
2022-12-28T16:21:15.124Z,3.17
2022-12-28T16:24:18.810Z,11.20
2022-12-28T16:27:21.570Z,18.03
2022-12-28T16:30:23.120Z,15.27
2022-12-28T16:33:25.290Z,6.87
2022-12-28T16:36:27.258Z,8.87
2022-12-28T16:39:29.721Z,12.03
2022-12-28T16:42:32.074Z,10.63
2022-12-28T16:45:38.260Z,8.93
2022-12-28T16:48:40.617Z,3.77
2022-12-28T16:51:45.462Z,5.90
2022-12-28T16:54:46.997Z,8.23
2022-12-28T16:57:48.404Z,5.97
2022-12-28T17:00:49.885Z,5.30
2022-12-28T17:03:51.421Z,5.33
2022-12-28T17:06:53.235Z,6.67
2022-12-28T17:09:54.631Z,4.47
2022-12-28T17:12:56.061Z,5.03
2022-12-28T17:16:00.319Z,6.30
2022-12-28T17:19:02.480Z,8.70
2022-12-28T17:22:04.712Z,9.87
2022-12-28T17:25:07.057Z,7.97
2022-12-28T17:28:08.616Z,9.33
2022-12-28T17:31:15.580Z,8.60
2022-12-28T17:34:19.381Z,10.03
2022-12-28T17:37:20.925Z,10.27
2022-12-28T17:40:22.353Z,10.57
2022-12-28T17:43:23.790Z,12.83
2022-12-28T17:46:28.853Z,12.33
2022-12-28T17:49:30.319Z,10.80
2022-12-28T17:52:31.755Z,10.27
2022-12-28T17:55:35.428Z,10.43
2022-12-28T17:58:36.907Z,9.83
2022-12-28T18:01:38.384Z,9.10
2022-12-28T18:04:40.490Z,12.27
2022-12-28T18:07:42.058Z,11.43
2022-12-28T18:10:46.077Z,11.33
2022-12-28T18:13:48.074Z,16.60
2022-12-28T18:16:49.483Z,16.13
2022-12-28T18:19:53.376Z,12.20
2022-12-28T18:22:55.350Z,13.63
2022-12-28T18:26:12.447Z,13.30
2022-12-28T18:29:14.015Z,13.00
2022-12-28T18:32:15.679Z,14.93
2022-12-28T18:35:17.178Z,11.97
2022-12-28T18:38:18.718Z,9.80
2022-12-28T18:41:21.219Z,10.77
2022-12-28T18:44:22.900Z,11.07
2022-12-28T18:47:24.565Z,8.63
2022-12-28T18:50:26.362Z,8.37
2022-12-28T18:53:29.393Z,7.67
2022-12-28T18:56:30.790Z,8.13
2022-12-28T18:59:32.263Z,13.13
2022-12-28T19:02:34.042Z,7.27
2022-12-28T19:05:35.497Z,11.37
2022-12-28T19:08:40.006Z,8.83
2022-12-28T19:11:41.858Z,9.10
2022-12-28T19:14:43.229Z,11.53
2022-12-28T19:17:44.609Z,9.57
2022-12-28T19:20:46.123Z,11.10
2022-12-28T19:23:51.588Z,15.17
2022-12-28T19:26:53.664Z,9.67
2022-12-28T19:29:55.116Z,8.03
2022-12-28T19:32:56.719Z,8.53
2022-12-28T19:35:58.163Z,7.33
2022-12-28T19:38:59.617Z,9.93
2022-12-28T19:42:01.028Z,6.23
2022-12-28T19:45:07.963Z,7.37
2022-12-28T19:48:11.254Z,8.73
2022-12-28T19:51:13.655Z,6.80
2022-12-28T19:54:15.169Z,9.17
2022-12-28T19:57:16.561Z,9.37
2022-12-28T20:00:18.443Z,8.07
2022-12-28T20:03:20.023Z,8.03
2022-12-28T20:06:26.534Z,6.47
2022-12-28T20:09:28.028Z,7.63
2022-12-28T20:12:29.403Z,17.00
2022-12-28T20:15:30.792Z,11.13
2022-12-28T20:18:32.215Z,8.30
2022-12-28T20:21:34.839Z,7.93
2022-12-28T20:24:36.260Z,7.03
2022-12-28T20:27:37.707Z,6.17
2022-12-28T20:30:39.155Z,6.93
2022-12-28T20:33:41.093Z,6.23
2022-12-28T20:36:42.565Z,6.63
2022-12-28T20:39:43.984Z,7.87
2022-12-28T20:43:03.966Z,6.23
2022-12-28T20:46:10.425Z,7.93
2022-12-28T20:49:12.052Z,7.53
2022-12-28T20:52:13.432Z,6.87
2022-12-28T20:55:14.837Z,8.47
2022-12-28T20:58:16.219Z,9.27
2022-12-28T21:01:18.153Z,9.17
2022-12-28T21:04:19.828Z,7.77
2022-12-28T21:07:21.279Z,8.20
2022-12-28T21:10:22.679Z,7.20
2022-12-28T21:13:24.250Z,7.43
2022-12-28T21:16:26.012Z,7.50
2022-12-28T21:19:27.437Z,8.13
2022-12-28T21:22:28.898Z,8.80
2022-12-28T21:25:33.474Z,6.90
2022-12-28T21:28:34.875Z,8.33
2022-12-28T21:31:36.409Z,9.23
2022-12-28T21:34:37.887Z,8.00
2022-12-28T21:37:39.345Z,8.10
2022-12-28T21:40:40.793Z,7.57
2022-12-28T21:43:42.580Z,11.57
2022-12-28T21:46:44.603Z,9.50
2022-12-28T21:49:46.068Z,7.53
2022-12-28T21:52:47.498Z,9.03
2022-12-28T21:55:48.956Z,9.47
2022-12-28T21:58:50.823Z,8.13
2022-12-28T22:02:11.522Z,8.57
2022-12-28T22:05:31.704Z,9.97
2022-12-28T22:08:52.654Z,11.53
2022-12-28T22:12:12.811Z,11.87
2022-12-28T22:15:36.591Z,10.33
2022-12-28T22:19:00.984Z,12.10
2022-12-28T22:21:59.339Z,12.47
2022-12-28T22:25:00.805Z,13.33
2022-12-28T22:28:02.902Z,12.43
2022-12-28T22:31:05.901Z,12.43
2022-12-28T22:34:07.758Z,11.03
2022-12-28T22:37:09.179Z,12.47
2022-12-28T22:40:11.700Z,13.83
2022-12-28T22:43:13.081Z,10.60
2022-12-28T22:46:14.568Z,12.67
2022-12-28T22:49:16.168Z,15.73
2022-12-28T22:52:17.601Z,16.63
2022-12-28T22:55:18.999Z,17.90
2022-12-28T22:58:20.399Z,16.50
2022-12-28T23:01:21.888Z,16.03
2022-12-28T23:04:23.367Z,15.97
2022-12-28T23:07:24.812Z,15.23
2022-12-28T23:10:26.231Z,13.93
2022-12-28T23:13:27.911Z,11.70
2022-12-28T23:16:30.073Z,12.97
2022-12-28T23:19:50.049Z,15.13
2022-12-28T23:23:26.602Z,11.40
2022-12-28T23:26:46.474Z,11.67
2022-12-28T23:29:48.038Z,10.70
2022-12-28T23:32:51.749Z,10.10
2022-12-28T23:35:53.134Z,9.27
2022-12-28T23:38:54.522Z,7.97
2022-12-28T23:41:55.995Z,5.93
2022-12-28T23:44:57.392Z,6.37
2022-12-28T23:47:58.875Z,5.17
2022-12-28T23:51:07.950Z,4.73
2022-12-28T23:54:10.832Z,4.47
2022-12-28T23:57:12.235Z,3.50
